Time;durP1;ratioP1;P1;durP2;ratioP2;P2;SDS_P1;SDS_P2;PMS_P1;PMS_P2;Temp;Humidity;BMP_temperature;BMP_pressure;BME280_temperature;BME280_humidity;BME280_pressure;Samples;Min_cycle;Max_cycle;Signal;HPM_P1;HPM_P2
2023/05/21 00:02:17;;;;;;;5.75;4.30;;;14.30;99.90;;;;;;5072144;28;20044;-74
2023/05/21 00:04:47;;;;;;;6.85;4.18;;;14.30;99.90;;;;;;5119498;27;20051;-74
2023/05/21 00:07:14;;;;;;;5.97;4.80;;;14.30;99.90;;;;;;5084227;28;20038;-75
2023/05/21 00:09:40;;;;;;;6.53;4.80;;;14.30;99.90;;;;;;5091586;28;20051;-73
2023/05/21 00:12:07;;;;;;;5.82;4.88;;;14.30;99.90;;;;;;5130561;27;20047;-73
2023/05/21 00:14:33;;;;;;;6.60;4.88;;;14.30;99.90;;;;;;5081102;28;20040;-74
2023/05/21 00:16:59;;;;;;;6.85;4.80;;;14.20;99.90;;;;;;5131434;27;20051;-73
2023/05/21 00:19:26;;;;;;;8.30;4.70;;;14.20;99.90;;;;;;5089566;28;20058;-75
2023/05/21 00:21:52;;;;;;;5.85;4.90;;;14.20;99.90;;;;;;5101307;28;20046;-75
2023/05/21 00:24:18;;;;;;;7.30;4.75;;;14.20;99.90;;;;;;5087480;28;20566;-75
2023/05/21 00:26:44;;;;;;;5.85;4.63;;;14.20;99.90;;;;;;5081967;28;20048;-75
2023/05/21 00:29:10;;;;;;;6.63;4.93;;;14.20;99.90;;;;;;5095272;28;20055;-74
2023/05/21 00:31:35;;;;;;;6.30;4.68;;;14.20;99.90;;;;;;5067984;28;20050;-73
2023/05/21 00:34:01;;;;;;;6.45;4.57;;;14.20;99.90;;;;;;5102122;28;20070;-73
2023/05/21 00:36:27;;;;;;;7.63;4.93;;;14.20;99.90;;;;;;5086128;28;20083;-74
2023/05/21 00:38:52;;;;;;;6.40;5.05;;;14.20;99.90;;;;;;5087681;28;20044;-74
2023/05/21 00:41:19;;;;;;;8.18;4.75;;;14.20;99.90;;;;;;5100174;28;20046;-73
2023/05/21 00:43:47;;;;;;;7.65;5.22;;;14.20;99.90;;;;;;5087657;28;21067;-73
2023/05/21 00:46:16;;;;;;;7.68;5.30;;;14.20;99.90;;;;;;5064861;28;20040;-74
2023/05/21 00:48:44;;;;;;;6.88;5.00;;;14.20;99.90;;;;;;5098476;28;20096;-74
2023/05/21 00:51:11;;;;;;;6.95;4.57;;;14.20;99.90;;;;;;5094475;28;20039;-73
2023/05/21 00:53:38;;;;;;;8.57;4.75;;;14.20;99.90;;;;;;5086213;27;20591;-74
2023/05/21 00:56:04;;;;;;;7.25;4.57;;;14.10;99.90;;;;;;5102040;28;20043;-73
2023/05/21 00:58:34;;;;;;;8.23;5.00;;;14.10;99.90;;;;;;5097032;28;20371;-73
2023/05/21 01:01:05;;;;;;;6.18;4.70;;;14.10;99.90;;;;;;5064360;28;20088;-73
2023/05/21 01:03:37;;;;;;;7.00;4.60;;;14.10;99.90;;;;;;5081868;28;20170;-74
2023/05/21 01:06:07;;;;;;;6.32;4.32;;;14.10;99.90;;;;;;5098834;28;20044;-73
2023/05/21 01:08:33;;;;;;;;;;;14.10;99.90;;;;;;5082902;28;20043;-74
2023/05/21 01:11:01;;;;;;;7.05;4.43;;;14.00;99.90;;;;;;5130817;27;19923;-74
2023/05/21 01:13:29;;;;;;;11.13;4.75;;;14.00;99.90;;;;;;5088648;28;20104;-74
2023/05/21 01:15:56;;;;;;;7.53;5.15;;;14.00;99.90;;;;;;5067046;28;20077;-74
2023/05/21 01:18:23;;;;;;;7.57;5.53;;;14.00;99.90;;;;;;5069788;28;20130;-73
2023/05/21 01:20:49;;;;;;;8.55;4.82;;;14.00;99.90;;;;;;5099448;28;20051;-74
2023/05/21 01:23:19;;;;;;;7.45;5.07;;;14.00;99.90;;;;;;5086084;28;20039;-73
2023/05/21 01:25:45;;;;;;;6.50;5.32;;;14.00;99.90;;;;;;5084378;28;20601;-73
2023/05/21 01:28:12;;;;;;;10.57;6.05;;;14.00;99.90;;;;;;5086784;28;20383;-74
2023/05/21 01:30:39;;;;;;;6.78;4.93;;;14.00;99.90;;;;;;5082857;28;20081;-74
2023/05/21 01:33:14;;;;;;;5.95;5.28;;;13.90;99.90;;;;;;5084258;28;20032;-73
2023/05/21 01:36:14;;;;;;;7.40;5.47;;;13.90;99.90;;;;;;5099625;28;20084;-74
2023/05/21 01:38:46;;;;;;;7.53;5.28;;;13.90;99.90;;;;;;5090148;28;20539;-74
2023/05/21 01:41:14;;;;;;;9.43;6.18;;;13.90;99.90;;;;;;5081503;27;20043;-74
2023/05/21 01:43:42;;;;;;;8.73;5.28;;;13.80;99.90;;;;;;5130851;27;20043;-74
2023/05/21 01:46:12;;;;;;;7.30;5.82;;;13.90;99.90;;;;;;5101502;28;20043;-74
2023/05/21 01:48:38;;;;;;;8.90;6.00;;;13.90;99.90;;;;;;5082655;28;20071;-74
2023/05/21 01:51:05;;;;;;;7.43;5.90;;;13.80;99.90;;;;;;5087755;28;20124;-74
2023/05/21 01:53:31;;;;;;;8.70;5.80;;;13.80;99.90;;;;;;5087387;28;20066;-74
2023/05/21 01:55:58;;;;;;;8.18;5.88;;;13.80;99.90;;;;;;5095636;28;20965;-74
2023/05/21 01:58:24;;;;;;;8.07;5.80;;;13.80;99.90;;;;;;5059652;28;21275;-74
2023/05/21 02:00:50;;;;;;;8.55;5.72;;;13.80;99.90;;;;;;5098394;28;20048;-75
2023/05/21 02:03:16;;;;;;;8.90;5.82;;;13.80;99.90;;;;;;5087670;28;20865;-74
2023/05/21 02:05:42;;;;;;;8.27;6.13;;;13.80;99.90;;;;;;5116156;27;20440;-74
2023/05/21 02:08:13;;;;;;;7.68;6.25;;;13.80;99.90;;;;;;5127442;27;20044;-76
2023/05/21 02:10:39;;;;;;;8.13;5.72;;;13.70;99.90;;;;;;5089602;28;20044;-74
2023/05/21 02:13:05;;;;;;;9.10;5.95;;;13.70;99.90;;;;;;5071364;28;20120;-74
2023/05/21 02:15:33;;;;;;;8.45;6.38;;;13.70;99.90;;;;;;5097207;28;20035;-74
2023/05/21 02:17:59;;;;;;;7.93;6.18;;;13.70;99.90;;;;;;5123336;27;20063;-74
2023/05/21 02:20:25;;;;;;;8.80;6.13;;;13.70;99.90;;;;;;5089759;28;20498;-75
2023/05/21 02:22:54;;;;;;;8.52;6.00;;;13.70;99.90;;;;;;5083046;28;20039;-75
2023/05/21 02:25:20;;;;;;;12.85;7.28;;;13.70;99.90;;;;;;5076522;28;20475;-74
2023/05/21 02:27:52;;;;;;;8.55;6.38;;;13.60;99.90;;;;;;5078347;28;20071;-75
2023/05/21 02:30:19;;;;;;;8.18;6.47;;;13.60;99.90;;;;;;5085562;28;20043;-76
2023/05/21 02:32:47;;;;;;;8.50;6.18;;;13.70;99.90;;;;;;5102614;28;20058;-77
2023/05/21 02:35:14;;;;;;;9.15;6.70;;;13.60;99.90;;;;;;5113873;27;20047;-77
2023/05/21 02:37:42;;;;;;;8.10;6.57;;;13.60;99.90;;;;;;5100869;28;20134;-77
2023/05/21 02:40:09;;;;;;;8.35;6.45;;;13.50;99.90;;;;;;5082097;28;20028;-77
2023/05/21 02:42:38;;;;;;;9.45;7.45;;;13.60;99.90;;;;;;5103003;28;20071;-77
2023/05/21 02:45:05;;;;;;;9.50;7.72;;;13.60;99.90;;;;;;5100111;28;20063;-77
2023/05/21 02:47:31;;;;;;;9.27;7.55;;;13.60;99.90;;;;;;5067048;28;20567;-75
2023/05/21 02:50:03;;;;;;;9.32;7.35;;;13.50;99.90;;;;;;5085408;28;20056;-76
2023/05/21 02:52:28;;;;;;;10.35;7.60;;;13.50;99.90;;;;;;5082372;28;20848;-77
2023/05/21 02:54:54;;;;;;;11.13;7.68;;;13.60;99.90;;;;;;5060389;28;20571;-77
2023/05/21 02:57:23;;;;;;;8.68;7.18;;;13.50;99.90;;;;;;5080850;28;20077;-76
2023/05/21 02:59:49;;;;;;;9.57;7.15;;;13.50;99.90;;;;;;5065170;28;20668;-76
2023/05/21 03:02:15;;;;;;;10.05;7.13;;;13.60;99.90;;;;;;5081947;28;20449;-76
2023/05/21 03:04:45;;;;;;;9.13;7.60;;;13.50;99.90;;;;;;5079746;28;20431;-76
2023/05/21 03:07:16;;;;;;;9.77;7.88;;;13.50;99.90;;;;;;5084292;28;20043;-76
2023/05/21 03:09:42;;;;;;;8.63;7.50;;;13.50;99.90;;;;;;5113098;27;20113;-76
2023/05/21 03:12:09;;;;;;;10.73;7.95;;;13.50;99.90;;;;;;5102158;28;20035;-76
2023/05/21 03:14:34;;;;;;;9.30;8.23;;;13.60;99.90;;;;;;5082577;28;20100;-76
2023/05/21 03:17:04;;;;;;;9.63;7.38;;;13.50;99.90;;;;;;5083000;28;20534;-76
2023/05/21 03:19:34;;;;;;;8.82;7.93;;;13.50;99.90;;;;;;5079603;28;20032;-75
2023/05/21 03:22:04;;;;;;;10.63;8.48;;;13.50;99.90;;;;;;5101978;28;20458;-76
2023/05/21 03:24:30;;;;;;;9.20;7.53;;;13.50;99.90;;;;;;5080752;28;20047;-76
2023/05/21 03:26:56;;;;;;;9.82;7.72;;;13.50;99.90;;;;;;5098385;28;20335;-76
2023/05/21 03:29:22;;;;;;;12.10;8.25;;;13.50;99.90;;;;;;5082034;28;20031;-76
2023/05/21 03:31:47;;;;;;;15.07;7.97;;;13.50;99.90;;;;;;5101644;28;20086;-76
2023/05/21 03:34:13;;;;;;;10.10;7.78;;;13.50;99.90;;;;;;5083713;28;20040;-76
2023/05/21 03:36:39;;;;;;;10.00;7.53;;;13.50;99.90;;;;;;5083819;28;20051;-76
2023/05/21 03:39:05;;;;;;;10.30;8.40;;;13.50;99.90;;;;;;5064306;28;20490;-77
2023/05/21 03:41:31;;;;;;;8.20;7.40;;;13.50;99.90;;;;;;5119638;28;20036;-74
2023/05/21 03:44:00;;;;;;;9.82;8.32;;;13.50;99.90;;;;;;5078846;28;20040;-74
2023/05/21 03:46:27;;;;;;;10.27;8.23;;;13.50;99.90;;;;;;5085279;28;20036;-74
2023/05/21 03:48:57;;;;;;;10.38;7.78;;;13.50;99.90;;;;;;5097643;28;20438;-74
2023/05/21 03:51:23;;;;;;;10.82;8.07;;;13.50;99.90;;;;;;5086578;28;20378;-74
2023/05/21 03:53:51;;;;;;;9.55;7.43;;;13.50;99.90;;;;;;5083138;28;20449;-74
2023/05/21 03:56:17;;;;;;;8.57;7.40;;;13.50;99.90;;;;;;5087845;28;20040;-75
2023/05/21 03:58:42;;;;;;;9.80;7.78;;;13.50;99.90;;;;;;5100369;28;20051;-74
2023/05/21 04:01:09;;;;;;;12.95;7.60;;;13.50;99.90;;;;;;5081768;28;20043;-74
2023/05/21 04:03:35;;;;;;;9.57;7.85;;;13.50;99.90;;;;;;5074928;28;20040;-75
2023/05/21 04:06:02;;;;;;;11.77;8.55;;;13.50;99.90;;;;;;5080382;28;20077;-74
2023/05/21 04:08:27;;;;;;;10.60;7.78;;;13.50;99.90;;;;;;5100217;28;20071;-75
2023/05/21 04:10:53;;;;;;;9.90;7.80;;;13.50;99.90;;;;;;5086840;28;20090;-74
2023/05/21 04:13:19;;;;;;;9.07;7.40;;;13.50;99.90;;;;;;5091931;28;20071;-74
2023/05/21 04:15:45;;;;;;;10.95;7.90;;;13.50;99.90;;;;;;5115345;27;20032;-74
2023/05/21 04:18:12;;;;;;;11.40;7.82;;;13.50;99.90;;;;;;5116366;27;20040;-75
2023/05/21 04:20:38;;;;;;;11.52;7.95;;;13.50;99.90;;;;;;5098873;27;20097;-77
2023/05/21 04:23:04;;;;;;;10.48;8.02;;;13.50;99.90;;;;;;5102172;27;20059;-78
2023/05/21 04:25:30;;;;;;;10.25;7.53;;;13.40;99.90;;;;;;5079627;28;20040;-78
2023/05/21 04:27:55;;;;;;;9.45;7.65;;;13.50;99.90;;;;;;5122249;27;20409;-77
2023/05/21 04:30:22;;;;;;;11.18;7.82;;;13.50;99.90;;;;;;5070489;28;20043;-77
2023/05/21 04:32:48;;;;;;;9.18;7.75;;;13.40;99.90;;;;;;5110015;27;20075;-78
2023/05/21 04:35:14;;;;;;;10.85;7.65;;;13.50;99.90;;;;;;5073772;28;20095;-78
2023/05/21 04:37:44;;;;;;;11.77;8.15;;;13.50;99.90;;;;;;5133253;27;20903;-77
2023/05/21 04:40:16;;;;;;;11.23;7.60;;;13.50;99.90;;;;;;5074675;28;20055;-78
2023/05/21 04:42:45;;;;;;;11.50;7.68;;;13.40;99.90;;;;;;5095556;28;20047;-78
2023/05/21 04:45:11;;;;;;;9.65;7.50;;;13.50;99.90;;;;;;5075975;28;20197;-77
2023/05/21 04:47:37;;;;;;;10.43;7.50;;;13.50;99.90;;;;;;5136940;27;20043;-78
2023/05/21 04:50:06;;;;;;;9.13;7.95;;;13.50;99.90;;;;;;5077221;28;20075;-78
2023/05/21 04:52:33;;;;;;;12.05;8.38;;;13.50;99.90;;;;;;5118768;27;20043;-77
2023/05/21 04:55:00;;;;;;;11.60;7.93;;;13.50;99.90;;;;;;5104274;28;20485;-75
2023/05/21 04:57:27;;;;;;;10.07;7.35;;;13.50;99.90;;;;;;5084163;28;20123;-75
2023/05/21 04:59:52;;;;;;;10.82;7.35;;;13.50;99.90;;;;;;5076845;28;20063;-75
2023/05/21 05:02:18;;;;;;;8.95;6.97;;;13.50;99.90;;;;;;5092620;28;20366;-75
2023/05/21 05:04:45;;;;;;;11.70;7.03;;;13.50;99.90;;;;;;5058616;28;20051;-75
2023/05/21 05:07:11;;;;;;;13.68;7.85;;;13.50;99.90;;;;;;5075902;28;20236;-75
2023/05/21 05:09:37;;;;;;;11.35;7.75;;;13.60;99.90;;;;;;5098432;27;20051;-75
2023/05/21 05:12:03;;;;;;;10.02;7.45;;;13.60;99.90;;;;;;5102358;28;20071;-75
2023/05/21 05:14:29;;;;;;;9.13;6.88;;;13.60;99.90;;;;;;5080983;28;20043;-76
2023/05/21 05:16:58;;;;;;;10.85;7.18;;;13.60;99.90;;;;;;5089482;27;20062;-75
2023/05/21 05:19:25;;;;;;;10.70;6.97;;;13.60;99.90;;;;;;5109521;27;20050;-76
2023/05/21 05:21:54;;;;;;;9.52;7.00;;;13.60;99.90;;;;;;5108689;27;20036;-79
2023/05/21 05:24:20;;;;;;;10.10;7.00;;;13.60;99.90;;;;;;5083961;28;20035;-78
2023/05/21 05:26:46;;;;;;;9.35;7.43;;;13.60;99.90;;;;;;5097810;28;20044;-79
2023/05/21 05:29:12;;;;;;;10.18;7.15;;;13.60;99.90;;;;;;5098542;27;20048;-78
2023/05/21 05:31:38;;;;;;;10.68;6.95;;;13.60;99.90;;;;;;5113448;27;20059;-78
2023/05/21 05:34:04;;;;;;;12.52;7.57;;;13.60;99.90;;;;;;5098023;28;20040;-78
2023/05/21 05:36:33;;;;;;;9.90;6.87;;;13.70;99.90;;;;;;5096532;27;20075;-78
2023/05/21 05:38:59;;;;;;;10.32;7.03;;;13.70;99.90;;;;;;5087131;28;20043;-77
2023/05/21 05:41:25;;;;;;;11.10;7.53;;;13.70;99.90;;;;;;5132138;27;20043;-78
2023/05/21 05:43:51;;;;;;;11.63;7.00;;;13.70;99.90;;;;;;5067606;28;20046;-78
2023/05/21 05:46:17;;;;;;;11.27;7.72;;;13.80;99.90;;;;;;5098012;28;20036;-78
2023/05/21 05:48:42;;;;;;;13.13;7.57;;;13.80;99.90;;;;;;5078520;28;20064;-75
2023/05/21 05:51:08;;;;;;;11.10;7.10;;;13.80;99.90;;;;;;5092564;28;20120;-76
2023/05/21 05:53:34;;;;;;;12.02;6.63;;;13.80;99.90;;;;;;5125448;27;20036;-76
2023/05/21 05:56:00;;;;;;;10.30;7.05;;;13.90;99.90;;;;;;5099392;28;20044;-76
2023/05/21 05:58:25;;;;;;;9.32;6.90;;;14.00;99.90;;;;;;5103951;28;20032;-75
2023/05/21 06:00:54;;;;;;;9.55;6.78;;;14.00;99.90;;;;;;5087649;28;20050;-75
2023/05/21 06:03:20;;;;;;;9.95;6.70;;;14.00;99.90;;;;;;5098653;28;20116;-75
2023/05/21 06:05:45;;;;;;;8.75;6.57;;;14.00;99.90;;;;;;5128294;27;20493;-75
2023/05/21 06:08:11;;;;;;;8.70;6.57;;;14.00;99.90;;;;;;5083447;27;20122;-75
2023/05/21 06:10:37;;;;;;;10.20;6.70;;;14.00;99.90;;;;;;5080106;27;20032;-75
2023/05/21 06:13:03;;;;;;;8.57;5.97;;;14.00;99.90;;;;;;5101781;28;20052;-75
2023/05/21 06:15:29;;;;;;;8.77;6.80;;;14.00;99.90;;;;;;5099266;28;20040;-76
2023/05/21 06:17:55;;;;;;;9.35;6.47;;;14.10;99.90;;;;;;5079230;28;20653;-76
2023/05/21 06:20:21;;;;;;;9.95;6.43;;;14.00;99.90;;;;;;5102233;28;20553;-75
2023/05/21 06:22:46;;;;;;;7.78;5.93;;;14.00;99.90;;;;;;5085054;28;20073;-75
2023/05/21 06:25:13;;;;;;;9.95;6.40;;;14.10;99.90;;;;;;5062152;28;20119;-75
2023/05/21 06:27:42;;;;;;;9.63;6.43;;;14.10;99.90;;;;;;5099506;28;20545;-76
2023/05/21 06:30:08;;;;;;;8.48;6.40;;;14.10;99.90;;;;;;5104383;28;20123;-76
2023/05/21 06:32:33;;;;;;;9.73;6.10;;;14.10;99.90;;;;;;5097595;28;20576;-75
2023/05/21 06:34:59;;;;;;;9.68;6.60;;;14.10;99.90;;;;;;5067978;28;20035;-75
2023/05/21 06:37:25;;;;;;;9.70;5.30;;;14.20;99.90;;;;;;5047482;28;20043;-75
2023/05/21 06:39:51;;;;;;;8.32;5.82;;;14.20;99.90;;;;;;5080920;28;20054;-76
2023/05/21 06:42:17;;;;;;;9.23;5.88;;;14.20;99.90;;;;;;5099536;28;20043;-75
2023/05/21 06:44:43;;;;;;;8.57;5.70;;;14.30;99.90;;;;;;5068029;28;20393;-75
2023/05/21 06:47:08;;;;;;;8.73;6.72;;;14.30;99.90;;;;;;5082627;28;20038;-75
2023/05/21 06:49:34;;;;;;;8.90;5.85;;;14.30;99.90;;;;;;5084098;28;20053;-76
2023/05/21 06:52:00;;;;;;;8.20;5.55;;;14.40;99.90;;;;;;5083411;28;20044;-75
2023/05/21 06:54:26;;;;;;;10.15;6.22;;;14.40;99.90;;;;;;5081688;28;20046;-76
2023/05/21 06:56:52;;;;;;;9.38;6.20;;;14.40;99.90;;;;;;5079897;28;20063;-75
2023/05/21 06:59:17;;;;;;;9.48;5.97;;;14.50;99.90;;;;;;5118782;27;20136;-75
2023/05/21 07:01:43;;;;;;;9.45;6.13;;;14.50;99.90;;;;;;5077106;28;20043;-76
2023/05/21 07:04:09;;;;;;;8.18;5.43;;;14.50;99.90;;;;;;5052568;28;20425;-77
2023/05/21 07:06:36;;;;;;;13.70;6.40;;;14.60;99.90;;;;;;5063728;28;20043;-77
2023/05/21 07:09:03;;;;;;;10.00;6.00;;;14.60;99.90;;;;;;5081627;28;20063;-77
2023/05/21 07:11:32;;;;;;;9.33;6.30;;;14.70;99.90;;;;;;5098800;28;20067;-78
2023/05/21 07:14:02;;;;;;;9.98;6.38;;;14.70;99.90;;;;;;5080683;28;20778;-77
2023/05/21 07:16:28;;;;;;;9.65;5.97;;;14.80;99.90;;;;;;5099448;28;20509;-76
2023/05/21 07:18:54;;;;;;;8.18;6.10;;;14.90;99.90;;;;;;5077401;28;20093;-77
2023/05/21 07:21:23;;;;;;;9.05;6.70;;;14.90;99.90;;;;;;5096595;28;20039;-77
2023/05/21 07:23:48;;;;;;;8.27;6.30;;;14.90;99.90;;;;;;5100961;28;20048;-76
2023/05/21 07:26:14;;;;;;;10.27;7.00;;;14.90;99.90;;;;;;5063113;28;20032;-77
2023/05/21 07:28:40;;;;;;;8.07;6.05;;;14.90;99.90;;;;;;5069979;28;20054;-77
2023/05/21 07:31:07;;;;;;;10.75;6.30;;;14.90;99.90;;;;;;5100972;27;20040;-78
2023/05/21 07:33:33;;;;;;;8.95;6.07;;;15.00;99.90;;;;;;5084056;28;20506;-78
2023/05/21 07:35:59;;;;;;;9.00;6.35;;;15.00;99.90;;;;;;5136413;27;20058;-78
2023/05/21 07:38:25;;;;;;;8.77;6.30;;;15.00;99.90;;;;;;5083589;28;20040;-77
2023/05/21 07:40:54;;;;;;;9.50;6.38;;;15.10;99.90;;;;;;5085925;28;20126;-76
2023/05/21 07:43:19;;;;;;;9.80;6.70;;;15.20;99.90;;;;;;5088584;28;20050;-77
2023/05/21 07:45:45;;;;;;;7.55;5.55;;;15.30;99.90;;;;;;5081530;28;20051;-76
2023/05/21 07:48:11;;;;;;;8.90;6.53;;;15.40;99.90;;;;;;5087349;28;20602;-78
2023/05/21 07:50:37;;;;;;;10.35;6.03;;;15.50;99.90;;;;;;5100456;28;20130;-78
2023/05/21 07:53:03;;;;;;;8.20;6.57;;;15.50;99.90;;;;;;5085361;28;20102;-77
2023/05/21 07:55:28;;;;;;;12.90;7.07;;;15.50;99.90;;;;;;5098226;28;20604;-77
2023/05/21 07:57:55;;;;;;;9.40;6.82;;;15.60;99.90;;;;;;5103837;28;20082;-77
2023/05/21 08:00:24;;;;;;;9.98;7.32;;;15.60;99.90;;;;;;5080761;28;20044;-76
2023/05/21 08:02:51;;;;;;;9.98;6.60;;;15.70;99.90;;;;;;5103366;28;20499;-76
2023/05/21 08:05:17;;;;;;;9.88;6.82;;;15.70;99.90;;;;;;5100464;28;20044;-78
2023/05/21 08:07:42;;;;;;;9.05;6.45;;;15.80;99.90;;;;;;5137443;27;20096;-77
2023/05/21 08:10:09;;;;;;;8.75;6.80;;;15.80;99.90;;;;;;5099342;28;20131;-78
2023/05/21 08:12:34;;;;;;;10.73;7.35;;;15.80;99.90;;;;;;5067016;28;20502;-77
2023/05/21 08:15:00;;;;;;;9.43;7.40;;;15.90;99.90;;;;;;5081456;28;20052;-78
2023/05/21 08:17:27;;;;;;;11.20;6.80;;;16.00;99.90;;;;;;5102778;28;20039;-76
2023/05/21 08:19:53;;;;;;;9.77;7.15;;;16.00;99.90;;;;;;5083526;28;20116;-79
2023/05/21 08:22:19;;;;;;;10.75;7.10;;;16.00;99.90;;;;;;5103245;28;20449;-77
2023/05/21 08:24:45;;;;;;;10.38;6.97;;;16.10;99.90;;;;;;5083672;28;20036;-77
2023/05/21 08:27:11;;;;;;;12.57;6.85;;;16.20;99.90;;;;;;5070214;28;20365;-76
2023/05/21 08:29:36;;;;;;;10.10;6.80;;;16.20;99.90;;;;;;5098253;28;20529;-76
2023/05/21 08:32:02;;;;;;;9.35;6.70;;;16.30;99.90;;;;;;5054431;28;20162;-77
2023/05/21 08:34:28;;;;;;;8.40;6.57;;;16.30;99.90;;;;;;5086499;28;20035;-76
2023/05/21 08:36:54;;;;;;;8.68;6.80;;;16.40;99.90;;;;;;5133109;27;20059;-77
2023/05/21 08:39:23;;;;;;;9.38;6.03;;;16.50;99.90;;;;;;5099099;28;20485;-78
2023/05/21 08:41:52;;;;;;;7.97;6.70;;;16.60;99.90;;;;;;5103757;28;20528;-79
2023/05/21 08:44:29;;;;;;;9.38;6.95;;;16.70;99.90;;;;;;5102884;28;20043;-78
2023/05/21 08:46:58;;;;;;;9.75;6.90;;;16.80;99.90;;;;;;5120442;27;20036;-77
2023/05/21 08:49:29;;;;;;;7.97;6.18;;;16.80;99.90;;;;;;5087012;27;20050;-77
2023/05/21 08:51:56;;;;;;;9.23;6.97;;;16.90;99.90;;;;;;5097848;28;20561;-76
2023/05/21 08:54:22;;;;;;;8.75;6.22;;;16.90;99.90;;;;;;5101072;27;20563;-75
2023/05/21 08:56:48;;;;;;;8.15;6.60;;;17.00;99.90;;;;;;5130717;27;20051;-77
2023/05/21 08:59:15;;;;;;;9.98;7.38;;;17.10;99.90;;;;;;5067881;28;20032;-75
2023/05/21 09:01:42;;;;;;;10.05;6.25;;;17.20;99.90;;;;;;5132691;27;20067;-77
2023/05/21 09:04:09;;;;;;;8.23;6.78;;;17.20;99.90;;;;;;5066444;28;20044;-76
2023/05/21 09:06:36;;;;;;;7.50;6.43;;;17.30;99.90;;;;;;5135743;27;20073;-76
2023/05/21 09:09:13;;;;;;;12.93;6.70;;;17.30;99.90;;;;;;5085079;28;20044;-76
2023/05/21 09:11:41;;;;;;;8.15;6.28;;;17.30;99.90;;;;;;5097962;27;20119;-76
2023/05/21 09:14:07;;;;;;;8.13;6.90;;;17.30;99.90;;;;;;5099629;27;20134;-76
2023/05/21 09:16:33;;;;;;;9.70;6.72;;;17.30;99.90;;;;;;5065546;28;20555;-78
2023/05/21 09:18:58;;;;;;;10.02;6.55;;;17.30;99.90;;;;;;5111934;27;20095;-76
2023/05/21 09:21:26;;;;;;;11.20;7.07;;;17.30;99.90;;;;;;5086365;28;20388;-76
2023/05/21 09:23:56;;;;;;;8.88;6.63;;;17.40;99.90;;;;;;5084996;28;20052;-76
2023/05/21 09:26:23;;;;;;;9.27;6.65;;;17.40;99.90;;;;;;5057691;28;20520;-77
2023/05/21 09:28:50;;;;;;;9.63;6.85;;;17.50;99.90;;;;;;5098896;28;20137;-75
2023/05/21 09:31:19;;;;;;;8.23;6.15;;;17.50;99.90;;;;;;5117529;27;20056;-76
2023/05/21 09:33:49;;;;;;;9.10;7.13;;;17.50;99.90;;;;;;5079107;28;20047;-75
2023/05/21 09:36:19;;;;;;;9.10;6.65;;;17.50;99.90;;;;;;5097648;28;20055;-75
2023/05/21 09:38:46;;;;;;;9.75;7.28;;;17.50;99.90;;;;;;5079332;28;20046;-76
2023/05/21 09:41:12;;;;;;;8.93;6.85;;;17.60;99.90;;;;;;5102272;28;20097;-76
2023/05/21 09:43:42;;;;;;;9.13;6.75;;;17.70;99.90;;;;;;5066373;28;20036;-76
2023/05/21 09:46:08;;;;;;;8.32;6.47;;;17.80;99.90;;;;;;5135709;27;20035;-77
2023/05/21 09:48:39;;;;;;;9.13;6.65;;;17.80;99.90;;;;;;5083902;28;20331;-76
2023/05/21 09:51:13;;;;;;;8.88;6.13;;;17.80;99.90;;;;;;5076445;28;20050;-76
2023/05/21 09:53:52;;;;;;;7.80;5.40;;;17.90;99.90;;;;;;5085598;28;20088;-76
2023/05/21 09:56:25;;;;;;;10.68;6.65;;;18.00;99.90;;;;;;5097459;28;20040;-76
2023/05/21 09:58:53;;;;;;;8.00;6.05;;;18.20;99.90;;;;;;5068428;28;20050;-74
2023/05/21 10:01:20;;;;;;;9.52;5.75;;;18.30;99.90;;;;;;5099222;28;20058;-74
2023/05/21 10:04:01;;;;;;;8.25;6.32;;;18.40;99.90;;;;;;5084623;28;20522;-75
2023/05/21 10:06:29;;;;;;;8.60;6.60;;;18.50;99.90;;;;;;5096574;28;20051;-75
2023/05/21 10:08:58;;;;;;;10.65;6.72;;;18.40;99.90;;;;;;5117726;27;20052;-75
2023/05/21 10:11:26;;;;;;;10.60;7.15;;;18.40;99.90;;;;;;5098891;28;20129;-76
2023/05/21 10:14:00;;;;;;;8.68;6.35;;;18.40;99.90;;;;;;5067596;28;20043;-75
2023/05/21 10:16:29;;;;;;;9.70;7.13;;;18.40;99.90;;;;;;5132406;27;20548;-75
2023/05/21 10:18:56;;;;;;;10.00;7.28;;;18.50;99.90;;;;;;5080539;28;20048;-76
2023/05/21 10:21:23;;;;;;;9.10;7.10;;;18.50;99.90;;;;;;5100273;27;20111;-75
2023/05/21 10:23:50;;;;;;;9.02;6.60;;;18.70;99.90;;;;;;5100305;28;20104;-74
2023/05/21 10:26:20;;;;;;;13.23;6.93;;;18.90;99.90;;;;;;5079324;28;20043;-75
2023/05/21 10:28:49;;;;;;;10.50;7.28;;;19.10;99.90;;;;;;5098390;28;20047;-75
2023/05/21 10:31:15;;;;;;;8.45;6.25;;;19.20;99.90;;;;;;5078643;28;20113;-75
2023/05/21 10:33:42;;;;;;;10.60;7.25;;;19.30;99.90;;;;;;5082459;28;20486;-75
2023/05/21 10:36:09;;;;;;;12.07;7.13;;;19.40;99.90;;;;;;5094695;28;20055;-75
2023/05/21 10:38:36;;;;;;;11.85;7.10;;;19.50;99.90;;;;;;5082469;28;20713;-75
2023/05/21 10:41:05;;;;;;;11.75;6.85;;;19.60;99.90;;;;;;5081683;28;20406;-75
2023/05/21 10:44:03;;;;;;;10.90;7.57;;;19.60;99.90;;;;;;5116500;27;20092;-74
2023/05/21 10:46:59;;;;;;;9.05;7.45;;;19.50;99.90;;;;;;5083590;28;20085;-76
2023/05/21 10:49:43;;;;;;;10.63;6.97;;;19.50;99.90;;;;;;5085750;28;20035;-74
2023/05/21 10:52:09;;;;;;;11.68;7.80;;;19.50;99.90;;;;;;5097818;28;20047;-73
2023/05/21 10:54:56;;;;;;;10.38;7.38;;;19.50;99.90;;;;;;5084128;28;20028;-72
2023/05/21 10:57:59;;;;;;;10.05;7.63;;;19.50;99.90;;;;;;5098064;28;20712;-72
2023/05/21 11:00:26;;;;;;;9.25;7.80;;;19.60;99.90;;;;;;5082246;27;20142;-72
2023/05/21 11:02:52;;;;;;;11.07;7.75;;;19.70;99.90;;;;;;5086541;28;20105;-73
2023/05/21 11:05:55;;;;;;;11.32;8.23;;;19.70;99.90;;;;;;5085751;28;20070;-72
2023/05/21 11:08:46;;;;;;;9.13;7.20;;;19.80;99.90;;;;;;5119970;27;20079;-72
2023/05/21 11:11:13;;;;;;;10.35;8.02;;;20.00;99.90;;;;;;5137713;27;20047;-72
2023/05/21 11:13:53;;;;;;;10.60;8.75;;;20.10;99.90;;;;;;5057586;28;20035;-72
2023/05/21 11:16:24;;;;;;;9.32;8.43;;;20.20;99.90;;;;;;5101820;28;20506;-72
2023/05/21 11:18:53;;;;;;;10.77;8.05;;;20.10;99.90;;;;;;5105362;28;20112;-72
2023/05/21 11:21:21;;;;;;;11.52;8.85;;;20.20;99.90;;;;;;5103511;27;20056;-73
2023/05/21 11:23:55;;;;;;;12.00;8.70;;;20.30;99.90;;;;;;5087677;28;20075;-72
2023/05/21 11:26:29;;;;;;;9.02;7.80;;;20.30;99.90;;;;;;5070637;28;20028;-72
2023/05/21 11:29:08;;;;;;;13.80;8.82;;;20.40;99.90;;;;;;5117776;27;20039;-72
2023/05/21 11:31:37;;;;;;;10.98;8.90;;;20.50;99.90;;;;;;5087028;28;20050;-74
2023/05/21 11:34:27;;;;;;;12.68;9.30;;;20.60;99.90;;;;;;5087494;28;20047;-74
2023/05/21 11:37:15;;;;;;;9.32;7.78;;;20.70;99.90;;;;;;5139957;27;20130;-74
2023/05/21 11:39:42;;;;;;;14.00;12.63;;;20.80;99.90;;;;;;5116071;27;20093;-74
2023/05/21 11:42:08;;;;;;;11.20;9.38;;;20.90;99.90;;;;;;5102168;28;20085;-71
2023/05/21 11:44:40;;;;;;;12.38;9.90;;;20.90;99.90;;;;;;5106546;27;20394;-74
2023/05/21 11:47:07;;;;;;;12.90;10.25;;;21.00;99.90;;;;;;5089852;28;20119;-74
2023/05/21 11:49:33;;;;;;;11.80;10.60;;;21.20;99.90;;;;;;5051913;28;20702;-74
2023/05/21 11:52:00;;;;;;;15.32;12.90;;;21.20;99.90;;;;;;5099672;27;20055;-74
2023/05/21 11:54:28;;;;;;;14.48;12.57;;;21.30;99.90;;;;;;5086731;28;20047;-74
2023/05/21 11:56:54;;;;;;;13.07;11.68;;;21.40;99.90;;;;;;5087516;28;20502;-74
2023/05/21 11:59:20;;;;;;;16.33;14.63;;;21.50;99.90;;;;;;5083731;28;20036;-71
2023/05/21 12:01:46;;;;;;;15.48;13.20;;;21.50;99.90;;;;;;5068260;28;20169;-72
2023/05/21 12:04:15;;;;;;;12.05;10.65;;;21.50;99.90;;;;;;5102960;28;20126;-72
2023/05/21 12:06:43;;;;;;;13.07;11.20;;;21.60;99.90;;;;;;5086680;28;20416;-71
2023/05/21 12:09:10;;;;;;;16.05;14.38;;;21.60;99.90;;;;;;5071759;28;20032;-72
2023/05/21 12:11:40;;;;;;;16.88;15.07;;;21.60;99.90;;;;;;5100542;28;20063;-73
2023/05/21 12:14:12;;;;;;;15.85;14.25;;;21.70;99.90;;;;;;5104967;28;20051;-75
2023/05/21 12:16:39;;;;;;;15.55;14.00;;;21.70;99.90;;;;;;5070654;28;20039;-74
2023/05/21 12:19:08;;;;;;;17.73;15.90;;;21.60;99.90;;;;;;5105960;28;20090;-78
2023/05/21 12:21:34;;;;;;;17.33;15.63;;;21.50;99.90;;;;;;5064627;28;20115;-76
2023/05/21 12:24:01;;;;;;;17.55;15.75;;;21.40;99.90;;;;;;5070834;28;20089;-74
2023/05/21 12:26:27;;;;;;;16.73;14.98;;;21.40;99.90;;;;;;5099882;28;20295;-74
2023/05/21 12:28:53;;;;;;;16.35;14.65;;;21.50;99.90;;;;;;5084781;28;20456;-74
2023/05/21 12:31:21;;;;;;;19.02;16.27;;;21.50;99.90;;;;;;5100292;28;20048;-72
2023/05/21 12:33:49;;;;;;;16.02;14.30;;;21.60;99.90;;;;;;5103152;28;20123;-72
2023/05/21 12:36:30;;;;;;;17.90;16.00;;;21.70;99.90;;;;;;5087210;28;20043;-72
2023/05/21 12:38:57;;;;;;;15.85;14.15;;;21.80;99.90;;;;;;5085599;28;20051;-72
2023/05/21 12:41:23;;;;;;;13.90;12.60;;;21.90;99.90;;;;;;5084332;28;20044;-72
2023/05/21 12:43:50;;;;;;;13.90;12.35;;;21.90;99.90;;;;;;5084560;28;20058;-72
2023/05/21 12:46:17;;;;;;;15.80;13.13;;;21.90;99.90;;;;;;5114548;27;20089;-72
2023/05/21 12:48:56;;;;;;;17.65;15.75;;;22.00;99.90;;;;;;5070705;28;20075;-73